createdAt,value
2023-01-25T00:01:36.695Z,35.93
2023-01-25T00:04:03.820Z,31.60
2023-01-25T00:06:30.833Z,31.60
2023-01-25T00:08:57.834Z,31.03
2023-01-25T00:11:24.895Z,29.90
2023-01-25T00:13:54.637Z,27.43
2023-01-25T00:16:22.341Z,24.80
2023-01-25T00:18:49.853Z,27.13
2023-01-25T00:21:20.957Z,28.30
2023-01-25T00:23:48.285Z,30.60
2023-01-25T00:26:15.805Z,23.53
2023-01-25T00:28:43.165Z,27.57
2023-01-25T00:31:21.490Z,23.23
2023-01-25T00:34:01.384Z,24.30
2023-01-25T00:36:36.879Z,24.20
2023-01-25T00:39:12.395Z,23.27
2023-01-25T00:41:40.807Z,24.57
2023-01-25T00:44:07.967Z,21.87
2023-01-25T00:46:35.052Z,21.30
2023-01-25T00:49:02.255Z,20.40
2023-01-25T00:51:29.285Z,18.93
2023-01-25T00:53:56.342Z,19.97
2023-01-25T00:56:23.479Z,19.17
2023-01-25T00:58:50.549Z,21.03
2023-01-25T01:01:17.625Z,17.07
2023-01-25T01:03:44.687Z,19.37
2023-01-25T01:06:13.052Z,21.87
2023-01-25T01:08:41.811Z,22.67
2023-01-25T01:11:12.732Z,22.43
2023-01-25T01:13:41.052Z,20.43
2023-01-25T01:16:12.631Z,23.67
2023-01-25T01:18:44.214Z,19.87
2023-01-25T01:21:13.553Z,22.80
2023-01-25T01:23:41.144Z,20.43
2023-01-25T01:26:13.754Z,20.03
2023-01-25T01:28:41.037Z,16.83
2023-01-25T01:31:15.042Z,17.13
2023-01-25T01:33:42.325Z,16.23
2023-01-25T01:36:13.551Z,16.87
2023-01-25T01:38:41.549Z,19.27
2023-01-25T01:41:09.461Z,17.73
2023-01-25T01:43:37.248Z,20.57
2023-01-25T01:46:19.057Z,20.43
2023-01-25T01:49:04.021Z,17.97
2023-01-25T01:51:58.150Z,20.10
2023-01-25T01:54:43.705Z,19.63
2023-01-25T01:57:20.267Z,17.77
2023-01-25T02:00:03.944Z,17.63
2023-01-25T02:02:31.028Z,15.73
2023-01-25T02:05:03.780Z,16.00
2023-01-25T02:07:37.272Z,16.00
2023-01-25T02:10:09.604Z,14.80
2023-01-25T02:12:37.954Z,16.43
2023-01-25T02:15:07.139Z,17.70
2023-01-25T02:17:39.891Z,12.90
2023-01-25T02:20:30.053Z,16.27
2023-01-25T02:23:11.552Z,15.57
2023-01-25T02:25:38.783Z,14.90
2023-01-25T02:28:18.965Z,17.80
2023-01-25T02:30:47.127Z,14.97
2023-01-25T02:33:14.384Z,15.17
2023-01-25T02:35:53.970Z,15.57
2023-01-25T02:38:21.452Z,14.57
2023-01-25T02:41:03.232Z,13.77
2023-01-25T02:43:33.771Z,14.03
2023-01-25T02:46:27.796Z,15.90
2023-01-25T02:48:56.460Z,12.90
2023-01-25T02:51:27.199Z,13.77
2023-01-25T02:53:54.682Z,16.33
2023-01-25T02:56:22.235Z,17.00
2023-01-25T02:58:49.769Z,14.20
2023-01-25T03:01:17.528Z,15.80
2023-01-25T03:03:44.685Z,17.13
2023-01-25T03:06:12.009Z,14.17
2023-01-25T03:08:39.099Z,15.67
2023-01-25T03:11:07.756Z,16.03
2023-01-25T03:13:36.092Z,19.47
2023-01-25T03:16:10.647Z,18.77
2023-01-25T03:18:38.742Z,17.23
2023-01-25T03:21:12.664Z,15.80
2023-01-25T03:23:40.437Z,13.97
2023-01-25T03:26:19.118Z,16.70
2023-01-25T03:28:46.425Z,17.30
2023-01-25T03:31:16.331Z,19.50
2023-01-25T03:33:43.974Z,15.77
2023-01-25T03:36:11.396Z,17.27
2023-01-25T03:38:38.513Z,14.87
2023-01-25T03:41:05.747Z,14.40
2023-01-25T03:43:32.879Z,15.30
2023-01-25T03:46:02.169Z,14.90
2023-01-25T03:48:29.729Z,17.30
2023-01-25T03:50:59.408Z,17.03
2023-01-25T03:53:30.282Z,16.77
2023-01-25T03:56:03.152Z,16.57
2023-01-25T03:58:31.302Z,18.03
2023-01-25T04:01:04.180Z,15.97
2023-01-25T04:03:32.337Z,19.00
2023-01-25T04:06:00.406Z,18.37
2023-01-25T04:08:27.716Z,16.47
2023-01-25T04:11:00.545Z,18.83
2023-01-25T04:13:28.321Z,16.53
2023-01-25T04:15:55.491Z,16.20
2023-01-25T04:18:22.631Z,16.70
2023-01-25T04:20:55.153Z,21.63
2023-01-25T04:23:23.518Z,19.73
2023-01-25T04:25:59.830Z,22.73
2023-01-25T04:28:28.375Z,22.73
2023-01-25T04:30:57.041Z,20.10
2023-01-25T04:33:25.287Z,21.93
2023-01-25T04:35:52.631Z,24.30
2023-01-25T04:38:20.042Z,25.43
2023-01-25T04:40:47.248Z,21.17
2023-01-25T04:43:16.654Z,24.83
2023-01-25T04:45:43.999Z,24.03
2023-01-25T04:48:13.361Z,25.60
2023-01-25T04:50:42.402Z,28.07
2023-01-25T04:53:11.746Z,31.87
2023-01-25T04:55:38.896Z,23.17
2023-01-25T04:58:05.985Z,23.50
2023-01-25T05:00:33.485Z,25.63
2023-01-25T05:03:00.513Z,28.40
2023-01-25T05:05:27.875Z,28.07
2023-01-25T05:07:54.979Z,30.60
2023-01-25T05:10:23.096Z,33.33
2023-01-25T05:12:50.178Z,32.33
2023-01-25T05:15:17.275Z,33.03
2023-01-25T05:17:44.771Z,34.07
2023-01-25T05:20:12.549Z,30.17
2023-01-25T05:22:39.617Z,38.43
2023-01-25T05:25:27.040Z,38.63
2023-01-25T05:27:54.050Z,37.60
2023-01-25T05:30:21.186Z,38.27
2023-01-25T05:32:50.399Z,41.97
2023-01-25T05:35:17.622Z,37.63
2023-01-25T05:37:44.623Z,39.53
2023-01-25T05:40:12.313Z,40.37
2023-01-25T05:42:39.455Z,41.67
2023-01-25T05:45:07.841Z,43.77
2023-01-25T05:47:35.206Z,45.10
2023-01-25T05:50:02.227Z,46.37
2023-01-25T05:52:29.197Z,50.37
2023-01-25T05:54:56.180Z,54.03
2023-01-25T05:57:23.183Z,42.20
2023-01-25T05:59:50.181Z,42.90
2023-01-25T06:02:17.244Z,42.13
2023-01-25T06:04:44.370Z,42.73
2023-01-25T06:07:11.369Z,48.20
2023-01-25T06:09:38.396Z,42.90
2023-01-25T06:12:06.851Z,40.53
2023-01-25T06:14:33.888Z,43.23
2023-01-25T06:17:01.054Z,37.37
2023-01-25T06:19:28.361Z,39.80
2023-01-25T06:21:55.407Z,42.23
2023-01-25T06:24:22.460Z,44.73
2023-01-25T06:26:49.548Z,38.60
2023-01-25T06:29:16.616Z,43.03
2023-01-25T06:31:43.773Z,43.80
2023-01-25T06:34:12.662Z,41.17
2023-01-25T06:36:39.647Z,49.67
2023-01-25T06:39:06.794Z,36.97
2023-01-25T06:41:34.046Z,40.67
2023-01-25T06:44:01.156Z,43.20
2023-01-25T06:46:28.213Z,42.37
2023-01-25T06:48:55.250Z,41.03
2023-01-25T06:51:22.238Z,43.27
2023-01-25T06:53:49.386Z,43.27
2023-01-25T06:56:20.797Z,40.80
2023-01-25T06:58:48.691Z,36.90
2023-01-25T07:01:22.755Z,36.13
2023-01-25T07:03:52.712Z,36.43
2023-01-25T07:06:20.942Z,33.57
2023-01-25T07:08:49.255Z,35.07
2023-01-25T07:11:19.149Z,37.23
2023-01-25T07:13:47.720Z,45.23
2023-01-25T07:16:19.258Z,44.63
2023-01-25T07:18:47.154Z,53.27
2023-01-25T07:21:23.313Z,47.10
2023-01-25T07:23:51.517Z,43.47
2023-01-25T07:26:26.275Z,49.93
2023-01-25T07:28:55.803Z,40.93
2023-01-25T07:31:24.034Z,45.57
2023-01-25T07:33:53.691Z,53.83
2023-01-25T07:36:21.942Z,58.07
2023-01-25T07:38:49.324Z,55.47
2023-01-25T07:41:19.532Z,47.53
2023-01-25T07:43:46.610Z,50.23
2023-01-25T07:46:15.584Z,54.97
2023-01-25T07:48:48.643Z,37.80
2023-01-25T07:51:23.723Z,43.90
2023-01-25T07:53:54.252Z,42.33
2023-01-25T07:56:24.597Z,39.27
2023-01-25T07:58:54.826Z,42.13
2023-01-25T08:01:25.115Z,35.73
2023-01-25T08:03:55.739Z,38.93
2023-01-25T08:06:30.854Z,40.37
2023-01-25T08:08:59.994Z,44.33
2023-01-25T08:11:30.166Z,37.00
2023-01-25T08:13:57.602Z,37.73
2023-01-25T08:16:27.663Z,36.80
2023-01-25T08:18:58.196Z,39.07
2023-01-25T08:21:30.194Z,40.40
2023-01-25T08:24:02.545Z,33.93
2023-01-25T08:26:30.098Z,35.73
2023-01-25T08:28:57.902Z,36.80
2023-01-25T08:31:31.419Z,33.77
2023-01-25T08:33:59.474Z,31.50
2023-01-25T08:36:30.243Z,38.77
2023-01-25T08:39:06.009Z,38.37
2023-01-25T08:41:35.622Z,39.60
2023-01-25T08:44:02.785Z,40.47
2023-01-25T08:46:33.341Z,39.20
2023-01-25T08:49:02.363Z,33.20
2023-01-25T08:51:31.680Z,38.57
2023-01-25T08:54:04.984Z,36.83
2023-01-25T08:56:32.210Z,35.80
2023-01-25T08:58:59.258Z,38.00
2023-01-25T09:01:26.269Z,36.87
2023-01-25T09:03:54.765Z,40.33
2023-01-25T09:06:21.829Z,44.87
2023-01-25T09:08:49.677Z,38.67
2023-01-25T09:11:21.166Z,37.83
2023-01-25T09:13:49.235Z,38.97
2023-01-25T09:16:28.678Z,38.10
2023-01-25T09:18:59.193Z,43.53
2023-01-25T09:21:26.362Z,42.63
2023-01-25T09:24:05.929Z,41.97
2023-01-25T09:26:37.689Z,41.63
2023-01-25T09:29:05.428Z,38.97
2023-01-25T09:31:32.502Z,39.10
2023-01-25T09:33:59.619Z,40.97
2023-01-25T09:36:27.009Z,35.87
2023-01-25T09:38:55.075Z,35.13
2023-01-25T09:41:25.068Z,39.63
2023-01-25T09:44:13.788Z,35.57
2023-01-25T09:46:42.510Z,35.27
2023-01-25T09:49:39.671Z,38.90
2023-01-25T09:53:12.442Z,39.57
2023-01-25T09:55:40.260Z,44.53
2023-01-25T09:58:18.275Z,43.70
2023-01-25T10:00:48.175Z,41.07
2023-01-25T10:03:57.829Z,46.67
2023-01-25T10:06:46.078Z,39.13
2023-01-25T10:09:42.666Z,36.50
2023-01-25T10:12:19.233Z,42.07
2023-01-25T10:14:46.581Z,40.93
2023-01-25T10:17:40.433Z,40.97
2023-01-25T10:20:51.101Z,42.07
2023-01-25T10:23:36.065Z,37.77
2023-01-25T10:26:23.897Z,40.03
2023-01-25T10:29:18.049Z,40.73
2023-01-25T10:31:50.550Z,40.13
2023-01-25T10:34:56.793Z,40.13
2023-01-25T10:37:30.890Z,45.97
2023-01-25T10:40:09.591Z,51.93
2023-01-25T10:43:02.275Z,60.20
2023-01-25T10:45:29.289Z,59.13
2023-01-25T10:48:06.366Z,50.23
2023-01-25T10:50:46.545Z,47.73
2023-01-25T10:53:37.142Z,58.70
2023-01-25T10:56:12.924Z,45.50
2023-01-25T10:58:47.024Z,51.53
2023-01-25T11:01:31.301Z,45.97
2023-01-25T11:03:59.557Z,41.90
2023-01-25T11:06:34.211Z,43.80
2023-01-25T11:09:22.850Z,46.30
2023-01-25T11:12:00.807Z,40.30
2023-01-25T11:14:33.463Z,46.17
2023-01-25T11:17:04.252Z,44.17
2023-01-25T11:19:40.496Z,46.53
2023-01-25T11:22:24.503Z,43.47
2023-01-25T11:24:52.090Z,42.27
2023-01-25T11:27:27.388Z,42.70
2023-01-25T11:30:11.202Z,46.13
2023-01-25T11:32:39.802Z,47.53
2023-01-25T11:35:27.545Z,47.20
2023-01-25T11:38:19.919Z,63.43
2023-01-25T11:40:57.167Z,50.80
2023-01-25T11:43:52.782Z,51.80
2023-01-25T11:47:07.262Z,45.67
2023-01-25T11:50:01.376Z,45.03
2023-01-25T11:52:50.441Z,54.70
2023-01-25T11:55:54.382Z,46.47
2023-01-25T11:58:39.989Z,49.50
2023-01-25T12:01:34.828Z,49.23
2023-01-25T12:04:36.197Z,43.33
2023-01-25T12:07:25.518Z,44.77
2023-01-25T12:10:28.383Z,41.80
2023-01-25T12:13:15.609Z,45.20
2023-01-25T12:16:18.939Z,51.23
2023-01-25T12:19:16.551Z,44.33
2023-01-25T12:22:12.182Z,46.50
2023-01-25T12:25:17.077Z,40.93
2023-01-25T12:27:56.201Z,42.63
2023-01-25T12:31:12.617Z,42.90
2023-01-25T12:34:03.840Z,45.43
2023-01-25T12:37:00.110Z,45.33
2023-01-25T12:39:40.335Z,43.70
2023-01-25T12:42:23.270Z,53.00
2023-01-25T12:45:11.887Z,46.10
2023-01-25T12:47:47.286Z,47.60
2023-01-25T12:50:46.284Z,43.70
2023-01-25T12:53:48.299Z,41.43
2023-01-25T12:56:44.103Z,45.17
2023-01-25T12:59:43.831Z,46.40
2023-01-25T13:02:34.241Z,41.70
2023-01-25T13:05:16.299Z,42.03
2023-01-25T13:08:30.053Z,44.17
2023-01-25T13:11:15.453Z,45.40
2023-01-25T13:13:42.816Z,43.93
2023-01-25T13:16:36.528Z,42.27
2023-01-25T13:19:03.888Z,45.03
2023-01-25T13:21:44.979Z,55.87
2023-01-25T13:24:24.025Z,47.10
2023-01-25T13:26:54.218Z,43.37
2023-01-25T13:29:36.484Z,40.50
2023-01-25T13:32:34.838Z,39.70
2023-01-25T13:35:02.540Z,46.03
2023-01-25T13:37:33.408Z,42.93
2023-01-25T13:40:34.145Z,43.63
2023-01-25T13:43:05.462Z,45.40
2023-01-25T13:45:36.426Z,44.53
2023-01-25T13:48:09.209Z,42.77
2023-01-25T13:50:43.464Z,48.23
2023-01-25T13:53:16.467Z,50.70
2023-01-25T13:56:02.876Z,56.03
2023-01-25T13:58:48.068Z,45.53
2023-01-25T14:01:19.898Z,47.70
2023-01-25T14:04:02.161Z,46.83
2023-01-25T14:06:39.602Z,46.67
2023-01-25T14:09:22.797Z,45.17
2023-01-25T14:12:00.347Z,47.27
2023-01-25T14:14:33.357Z,46.50
2023-01-25T14:17:11.937Z,47.53
2023-01-25T14:19:45.591Z,48.23
2023-01-25T14:22:28.003Z,50.23
2023-01-25T14:25:17.642Z,48.23
2023-01-25T14:28:06.662Z,51.33
2023-01-25T14:30:36.218Z,42.33
2023-01-25T14:33:18.848Z,42.87
2023-01-25T14:35:56.311Z,47.83
2023-01-25T14:38:43.184Z,45.70
2023-01-25T14:41:34.787Z,48.07
2023-01-25T14:44:13.978Z,49.40
2023-01-25T14:46:41.971Z,46.03
2023-01-25T14:49:11.932Z,43.97
2023-01-25T14:51:49.193Z,40.37
2023-01-25T14:54:26.125Z,40.83
2023-01-25T14:57:06.035Z,41.27
2023-01-25T14:59:37.822Z,46.73
2023-01-25T15:02:44.618Z,44.07
2023-01-25T15:05:27.718Z,42.23
2023-01-25T15:08:24.953Z,42.50
2023-01-25T15:10:53.773Z,38.93
2023-01-25T15:13:28.287Z,41.33
2023-01-25T15:16:00.863Z,44.20
2023-01-25T15:18:54.154Z,37.60
2023-01-25T15:21:33.061Z,43.13
2023-01-25T15:24:06.550Z,38.90
2023-01-25T15:26:35.427Z,39.43
2023-01-25T15:29:15.188Z,38.43
2023-01-25T15:31:43.077Z,40.63
2023-01-25T15:34:21.195Z,39.93
2023-01-25T15:36:48.508Z,48.00
2023-01-25T15:39:18.994Z,46.27
2023-01-25T15:41:46.868Z,49.37
2023-01-25T15:44:14.051Z,49.37
2023-01-25T15:46:46.298Z,46.43
2023-01-25T15:49:28.797Z,49.30
2023-01-25T15:51:56.560Z,53.80
2023-01-25T15:54:24.548Z,51.50
2023-01-25T15:56:56.141Z,51.03
2023-01-25T15:59:23.653Z,54.37
2023-01-25T16:01:50.769Z,59.40
2023-01-25T16:04:17.874Z,54.17
2023-01-25T16:06:47.735Z,50.47
2023-01-25T16:09:25.081Z,52.80
2023-01-25T16:11:58.615Z,57.17
2023-01-25T16:14:31.447Z,56.83
2023-01-25T16:17:03.096Z,54.80
2023-01-25T16:19:31.005Z,51.07
2023-01-25T16:21:58.288Z,60.73
2023-01-25T16:24:25.398Z,58.83
2023-01-25T16:26:58.361Z,52.20
2023-01-25T16:29:26.388Z,55.00
2023-01-25T16:31:54.443Z,59.43
2023-01-25T16:34:22.192Z,49.83
2023-01-25T16:36:51.012Z,51.60
2023-01-25T16:39:24.255Z,48.50
2023-01-25T16:41:51.616Z,47.47
2023-01-25T16:44:19.348Z,52.87
2023-01-25T16:46:48.329Z,55.90
2023-01-25T16:49:27.458Z,46.27
2023-01-25T16:51:55.353Z,52.57
2023-01-25T16:54:23.578Z,49.77
2023-01-25T16:56:52.266Z,51.23
2023-01-25T16:59:20.567Z,51.17
2023-01-25T17:01:48.261Z,46.77
2023-01-25T17:04:15.725Z,48.33
2023-01-25T17:06:46.621Z,48.50
2023-01-25T17:09:23.339Z,46.93
2023-01-25T17:11:52.137Z,48.30
2023-01-25T17:14:20.228Z,45.00
2023-01-25T17:16:51.347Z,49.47
2023-01-25T17:19:20.033Z,49.67
2023-01-25T17:21:47.222Z,49.20
2023-01-25T17:24:18.065Z,55.80
2023-01-25T17:26:45.162Z,48.43
2023-01-25T17:29:13.769Z,46.63
2023-01-25T17:31:42.235Z,48.43
2023-01-25T17:34:13.686Z,51.23
2023-01-25T17:36:40.865Z,47.33
2023-01-25T17:39:08.487Z,48.13
2023-01-25T17:41:36.060Z,50.13
2023-01-25T17:44:03.628Z,49.37
2023-01-25T17:46:35.070Z,46.27
2023-01-25T17:49:05.897Z,50.80
2023-01-25T17:51:34.744Z,45.37
2023-01-25T17:54:02.837Z,50.43
2023-01-25T17:56:30.443Z,43.23
2023-01-25T17:59:00.550Z,48.90
2023-01-25T18:01:31.259Z,55.43
2023-01-25T18:03:58.719Z,46.00
2023-01-25T18:06:29.807Z,46.53
2023-01-25T18:09:00.741Z,54.93
2023-01-25T18:11:34.435Z,50.43
2023-01-25T18:14:08.224Z,49.33
2023-01-25T18:16:38.925Z,47.00
2023-01-25T18:19:06.649Z,49.80
2023-01-25T18:21:35.075Z,47.70
2023-01-25T18:24:25.853Z,45.70
2023-01-25T18:27:00.170Z,49.43
2023-01-25T18:29:45.698Z,44.00
2023-01-25T18:32:13.954Z,55.13
2023-01-25T18:34:41.129Z,53.97
2023-01-25T18:37:18.274Z,45.70
2023-01-25T18:39:54.384Z,47.57
2023-01-25T18:42:24.539Z,58.30
2023-01-25T18:44:51.833Z,52.63
2023-01-25T18:47:21.578Z,53.47
2023-01-25T18:49:50.764Z,50.07
2023-01-25T18:52:20.427Z,52.00
2023-01-25T18:54:47.556Z,52.90
2023-01-25T18:57:15.814Z,47.80
2023-01-25T18:59:43.930Z,51.17
2023-01-25T19:02:14.519Z,46.53
2023-01-25T19:04:41.566Z,56.07
2023-01-25T19:07:08.826Z,52.87
2023-01-25T19:09:35.910Z,50.80
2023-01-25T19:12:03.369Z,54.23
2023-01-25T19:14:30.419Z,49.03
2023-01-25T19:16:57.508Z,52.33
2023-01-25T19:19:24.585Z,56.20
2023-01-25T19:21:51.697Z,47.93
2023-01-25T19:24:19.797Z,52.33
2023-01-25T19:26:47.514Z,48.23
2023-01-25T19:29:15.626Z,57.47
2023-01-25T19:31:42.755Z,57.43
2023-01-25T19:34:09.923Z,51.53
2023-01-25T19:36:47.461Z,49.37
2023-01-25T19:39:14.580Z,51.80
2023-01-25T19:41:42.203Z,55.13
2023-01-25T19:44:13.758Z,56.73
2023-01-25T19:46:40.946Z,47.93
2023-01-25T19:49:10.539Z,48.80
2023-01-25T19:51:41.442Z,46.00
2023-01-25T19:54:16.750Z,47.80
2023-01-25T19:56:47.436Z,48.37
2023-01-25T19:59:24.955Z,49.97
2023-01-25T20:01:52.451Z,48.30
2023-01-25T20:04:22.977Z,49.90
2023-01-25T20:06:51.618Z,46.77
2023-01-25T20:09:20.260Z,46.00
2023-01-25T20:11:47.630Z,47.23
2023-01-25T20:14:15.840Z,45.00
2023-01-25T20:16:42.966Z,44.67
2023-01-25T20:19:12.510Z,48.63
2023-01-25T20:21:39.948Z,43.63
2023-01-25T20:24:09.869Z,45.57
2023-01-25T20:26:39.393Z,45.03
2023-01-25T20:29:07.607Z,44.17
2023-01-25T20:31:38.040Z,41.90
2023-01-25T20:34:10.437Z,50.17
2023-01-25T20:36:37.780Z,46.97
2023-01-25T20:39:07.102Z,50.63
2023-01-25T20:41:35.081Z,49.13
2023-01-25T20:44:11.281Z,45.50
2023-01-25T20:46:40.984Z,50.13
2023-01-25T20:49:13.800Z,44.53
2023-01-25T20:51:42.841Z,47.90
2023-01-25T20:54:10.558Z,40.73
2023-01-25T20:56:37.815Z,48.43
2023-01-25T20:59:05.883Z,46.47
2023-01-25T21:01:36.664Z,49.03
2023-01-25T21:04:06.374Z,45.50
2023-01-25T21:06:35.233Z,46.40
2023-01-25T21:09:04.037Z,54.33
2023-01-25T21:11:31.705Z,45.37
2023-01-25T21:13:59.627Z,48.37
2023-01-25T21:16:27.163Z,46.97
2023-01-25T21:18:58.308Z,50.10
2023-01-25T21:21:34.652Z,46.60
2023-01-25T21:24:02.966Z,46.20
2023-01-25T21:26:33.530Z,50.33
2023-01-25T21:29:02.216Z,45.67
2023-01-25T21:31:32.998Z,49.73
2023-01-25T21:34:01.041Z,54.90
2023-01-25T21:36:28.330Z,52.70
2023-01-25T21:38:56.213Z,48.77
2023-01-25T21:41:26.402Z,52.20
2023-01-25T21:44:14.263Z,56.27
2023-01-25T21:46:41.763Z,58.73
2023-01-25T21:49:30.359Z,53.63
2023-01-25T21:52:03.785Z,55.43
2023-01-25T21:54:37.012Z,53.50
2023-01-25T21:57:09.427Z,52.80
2023-01-25T21:59:38.111Z,58.37
2023-01-25T22:02:08.243Z,56.40
2023-01-25T22:04:36.217Z,60.43
2023-01-25T22:07:04.137Z,58.13
2023-01-25T22:09:31.239Z,67.37
2023-01-25T22:11:58.594Z,60.83
2023-01-25T22:14:25.672Z,60.03
2023-01-25T22:16:53.310Z,60.97
2023-01-25T22:19:20.347Z,60.93
2023-01-25T22:21:47.829Z,64.17
2023-01-25T22:24:15.368Z,59.07
2023-01-25T22:27:17.234Z,61.27
2023-01-25T22:29:44.274Z,62.33
2023-01-25T22:32:11.272Z,60.37
2023-01-25T22:34:38.284Z,62.30
2023-01-25T22:37:05.362Z,61.17
2023-01-25T22:39:32.374Z,66.67
2023-01-25T22:41:59.372Z,62.47
2023-01-25T22:44:26.408Z,61.67
2023-01-25T22:46:53.866Z,69.83
2023-01-25T22:49:20.989Z,64.70
2023-01-25T22:51:47.998Z,67.47
2023-01-25T22:54:15.004Z,68.27
2023-01-25T22:56:42.050Z,68.13
2023-01-25T22:59:12.189Z,66.23
2023-01-25T23:01:39.256Z,67.53
2023-01-25T23:04:06.435Z,64.93
2023-01-25T23:06:36.560Z,63.67
2023-01-25T23:09:06.400Z,68.37
2023-01-25T23:11:37.473Z,66.57
2023-01-25T23:14:30.314Z,64.67
2023-01-25T23:17:17.580Z,61.40
2023-01-25T23:19:44.824Z,69.07
2023-01-25T23:22:12.520Z,74.70
2023-01-25T23:24:39.637Z,72.20
2023-01-25T23:27:06.735Z,64.63
2023-01-25T23:29:33.808Z,63.17
2023-01-25T23:32:00.897Z,63.53
2023-01-25T23:34:28.035Z,60.53
2023-01-25T23:36:55.080Z,63.30
2023-01-25T23:39:23.628Z,66.30
2023-01-25T23:41:52.457Z,64.60
2023-01-25T23:44:19.431Z,62.93
2023-01-25T23:46:46.520Z,63.53
2023-01-25T23:49:13.810Z,57.50
2023-01-25T23:51:40.854Z,53.97
2023-01-25T23:54:07.964Z,55.27
2023-01-25T23:56:34.956Z,53.97
2023-01-25T23:59:02.062Z,55.27
